Shenzhen, China
Current Conditions -  °F | °C
As of 8:00 AM on Monday 26 Jan 2015 (Local Time) from VHHH Reporting Station
Few Clouds Few Clouds  
Wind Chill: 64°   Ceiling: Unl
Heat Index: 64°   Visibility: 3mi
Dew Point: 59°   Wind: 9mph
Humidity: 83%   Direction: 80°E
Pressure: 30.12"   Gusts: NA
Location:  22.53°N, 114.13°E
Report Text: VHHH 260000Z 08008KT 5000 FEW025 18/15 Q1020 TEMPO 4000 BR
Loading
Personal Weather Stations






























Interactive Weather Map New forecast layout! Learn more

10-Day Weather Forecast

Advertisements
Track Severe Weather on mobile